Batsto, New Jersey
Current Conditions -  °F | °C
As of 9:54 AM on Saturday 25 Oct 2014 (Local Time) from KACY Reporting Station
Clear Clear  
Wind Chill: 57°   Ceiling: Unl
Heat Index: 57°   Visibility: 10mi
Dew Point: 40°   Wind: 9mph
Humidity: 53%   Direction: 300°WNW
Pressure: 29.91"   Gusts: NA
Location:  39.637°N, 74.7602°W
Report Text: KACY 251354Z 30008KT 10SM CLR 14/04 A2991 RMK AO2 SLP126 T01390044
Loading
Personal Weather Stations






























Interactive Weather Map
Tropical Storm Tracking
New forecast layout! Learn more

10-Day Weather Forecast

Advertisements
Track Severe Weather on mobile